Albany, New York
Traffic Map
Current Weather Conditions
Albany, New York
Scattered Clouds
Scattered Clouds
81°
Feels Like: 81°
Wind Chill: 81° Ceiling: Unl
Heat Index: 81° Visibility: 10mi
Dew Point: 50° Wind: 10mph
Humidity: 34% Direction: 300° (WNW)
Pressure: 29.97in Gusts: 0mph
Raw Report DataKALB 302251Z 30009KT 10SM FEW060 SCT250 27/10 A2997 RMK AO2 SLP147 T02720100
Traffic Incident Summary
Active as of:
Severity:
Category:
InformationThere was an issue retrieving the traffic information for this location. Please try a different location or try again shortly.
Advertisements
Track Severe Weather on mobile